Time;durP1;ratioP1;P1;durP2;ratioP2;P2;SDS_P1;SDS_P2;PMS_P1;PMS_P2;Temp;Humidity;BMP_temperature;BMP_pressure;BME280_temperature;BME280_humidity;BME280_pressure;Samples;Min_cycle;Max_cycle;Signal;HPM_P1;HPM_P2
2021/03/03 00:00:34;;;;;;;4.33;3.22;;;;;;;3.62;75.66;100458.05;1804484;79;21194;-69
2021/03/03 00:03:08;;;;;;;5.20;3.30;;;;;;;3.61;75.63;100460.25;1806312;79;21258;-71
2021/03/03 00:05:41;;;;;;;4.97;3.30;;;;;;;3.56;75.67;100458.38;1805613;79;21756;-71
2021/03/03 00:08:14;;;;;;;5.10;3.50;;;;;;;3.55;75.72;100458.02;1806525;79;21265;-71
2021/03/03 00:10:48;;;;;;;4.87;3.58;;;;;;;3.53;75.83;100455.14;1804641;79;21274;-70
2021/03/03 00:13:21;;;;;;;5.03;3.43;;;;;;;3.53;75.94;100453.85;1809095;79;21206;-71
2021/03/03 00:15:54;;;;;;;4.95;3.62;;;;;;;3.53;75.99;100459.03;1809450;79;21776;-71
2021/03/03 00:18:27;;;;;;;4.90;3.40;;;;;;;3.51;75.97;100456.50;1810662;79;21269;-70
2021/03/03 00:21:01;;;;;;;5.70;3.60;;;;;;;3.49;75.96;100462.23;1808136;79;21171;-71
2021/03/03 00:23:34;;;;;;;6.20;3.83;;;;;;;3.46;76.05;100462.88;1811579;79;21285;-71
2021/03/03 00:26:07;;;;;;;4.60;3.62;;;;;;;3.45;76.21;100459.45;1810171;79;21155;-70
2021/03/03 00:28:40;;;;;;;5.75;3.90;;;;;;;3.44;76.19;100464.24;1811127;79;21138;-70
2021/03/03 00:31:14;;;;;;;6.27;3.80;;;;;;;3.45;76.40;100459.91;1809509;79;21145;-70
2021/03/03 00:33:47;;;;;;;5.25;3.90;;;;;;;3.43;76.30;100467.77;1811831;79;21760;-70
2021/03/03 00:36:21;;;;;;;6.22;4.05;;;;;;;3.40;76.37;100463.59;1811156;79;21749;-70
2021/03/03 00:38:54;;;;;;;6.13;4.30;;;;;;;3.41;76.53;100470.42;1811878;79;21166;-70
2021/03/03 00:41:28;;;;;;;6.75;3.95;;;;;;;3.43;76.59;100465.63;1812095;79;21831;-70
2021/03/03 00:44:01;;;;;;;7.10;4.50;;;;;;;3.44;76.68;100467.31;1811854;79;21250;-70
2021/03/03 00:46:34;;;;;;;9.25;4.55;;;;;;;3.46;76.74;100463.72;1811776;79;21277;-70
2021/03/03 00:49:08;;;;;;;6.35;4.35;;;;;;;3.47;76.71;100475.73;1811053;79;21789;-70
2021/03/03 00:51:42;;;;;;;6.85;4.35;;;;;;;3.49;76.73;100476.47;1809700;79;21122;-70
2021/03/03 00:54:16;;;;;;;6.97;4.25;;;;;;;3.52;76.80;100476.76;1811140;79;21781;-71
2021/03/03 00:56:50;;;;;;;7.58;4.90;;;;;;;3.56;76.73;100479.08;1781120;79;21254;-71
2021/03/03 00:59:23;;;;;;;8.87;5.03;;;;;;;3.56;76.62;100475.20;1810881;79;21274;-70
2021/03/03 01:01:58;;;;;;;10.35;4.85;;;;;;;3.55;76.55;100485.20;1809908;79;21653;-71
2021/03/03 01:04:31;;;;;;;7.42;4.47;;;;;;;3.54;76.59;100483.52;1810903;79;21135;-71
2021/03/03 01:07:05;;;;;;;9.58;4.97;;;;;;;3.54;76.60;100485.27;1811180;79;21246;-70
2021/03/03 01:09:39;;;;;;;8.03;4.33;;;;;;;3.55;76.62;100488.24;1810029;79;21147;-71
2021/03/03 01:12:12;;;;;;;8.90;5.43;;;;;;;3.56;76.67;100482.16;1811999;79;21269;-70
2021/03/03 01:14:46;;;;;;;7.70;4.90;;;;;;;3.59;76.71;100489.73;1799027;79;21275;-71
2021/03/03 01:17:21;;;;;;;7.70;4.90;;;;;;;3.61;76.71;100495.20;1800005;80;21250;-69
2021/03/03 01:19:54;;;;;;;6.90;4.60;;;;;;;3.63;76.59;100496.42;1799975;80;21282;-71
2021/03/03 01:22:27;;;;;;;7.72;4.90;;;;;;;3.62;76.59;100496.03;1800259;79;21186;-71
2021/03/03 01:25:00;;;;;;;7.63;4.97;;;;;;;3.62;76.54;100499.92;1800023;80;21254;-71
2021/03/03 01:27:33;;;;;;;7.53;5.00;;;;;;;3.62;76.54;100494.74;1800097;80;21813;-72
2021/03/03 01:30:08;;;;;;;6.47;4.03;;;;;;;3.61;76.55;100502.96;1799977;80;21330;-71
2021/03/03 01:32:41;;;;;;;7.80;4.80;;;;;;;3.61;76.49;100512.48;1799817;80;21127;-71
2021/03/03 01:35:15;;;;;;;7.58;5.15;;;;;;;3.58;76.50;100512.67;1800154;80;21789;-71
2021/03/03 01:37:48;;;;;;;7.55;4.90;;;;;;;3.55;76.56;100508.95;1800256;80;21250;-71
2021/03/03 01:40:21;;;;;;;8.30;5.43;;;;;;;3.54;76.58;100511.99;1799652;80;21163;-70
2021/03/03 01:42:55;;;;;;;6.92;4.87;;;;;;;3.54;76.66;100514.58;1800459;80;21139;-71
2021/03/03 01:45:29;;;;;;;9.50;5.10;;;;;;;3.54;76.71;100519.76;1800049;80;21251;-70
2021/03/03 01:48:02;;;;;;;8.33;5.75;;;;;;;3.55;76.72;100518.85;1800202;80;21251;-70
2021/03/03 01:50:35;;;;;;;9.28;5.22;;;;;;;3.54;76.68;100521.50;1799743;79;21246;-70
2021/03/03 01:53:08;;;;;;;6.27;3.90;;;;;;;3.53;76.81;100525.88;1800536;80;21282;-71
2021/03/03 01:55:41;;;;;;;7.15;4.55;;;;;;;3.56;76.81;100530.05;1769920;79;21467;-69
2021/03/03 01:58:14;;;;;;;6.77;4.27;;;;;;;3.56;76.88;100526.16;1800261;80;21352;-69
2021/03/03 02:00:48;;;;;;;7.28;4.72;;;;;;;3.57;76.82;100530.41;1799725;80;21893;-70
2021/03/03 02:03:21;;;;;;;9.67;4.33;;;;;;;3.58;76.84;100530.34;1800363;80;21250;-69
2021/03/03 02:06:02;;;;;;;7.55;4.22;;;;;;;3.61;76.79;100537.07;1804212;78;21666;-69
2021/03/03 02:08:42;;;;;;;8.05;4.62;;;;;;;3.59;76.70;100544.09;1799466;78;21194;-69
2021/03/03 02:11:22;;;;;;;6.22;3.50;;;;;;;3.57;76.67;100545.94;1798941;79;21227;-69
2021/03/03 02:13:59;;;;;;;6.50;3.95;;;;;;;3.56;76.57;100538.63;1797966;79;21304;-71
2021/03/03 02:16:33;;;;;;;6.92;3.92;;;;;;;3.53;76.56;100543.16;1803233;79;21125;-69
2021/03/03 02:19:07;;;;;;;6.53;3.83;;;;;;;3.51;76.60;100544.51;1728865;82;21181;-69
2021/03/03 02:21:46;;;;;;;7.25;3.85;;;;;;;3.51;76.66;100551.47;1780806;80;21228;-70
2021/03/03 02:24:25;;;;;;;5.78;3.67;;;;;;;3.51;76.71;100556.64;1697594;84;21332;-70
2021/03/03 02:26:58;;;;;;;5.87;3.42;;;;;;;3.54;76.76;100562.92;1785859;80;21166;-70
2021/03/03 02:29:31;;;;;;;6.35;3.55;;;;;;;3.54;76.54;100565.05;1785969;80;21237;-69
2021/03/03 02:32:05;;;;;;;6.87;4.20;;;;;;;3.49;76.54;100569.65;1699491;83;21895;-70
2021/03/03 02:34:38;;;;;;;5.65;3.67;;;;;;;3.46;76.57;100574.17;1712997;82;21282;-69
2021/03/03 02:37:13;;;;;;;6.10;3.62;;;;;;;3.41;76.52;100577.83;1707987;83;21239;-70
2021/03/03 02:39:46;;;;;;;6.10;3.55;;;;;;;3.37;76.63;100583.25;1729430;83;21773;-70
2021/03/03 02:42:21;;;;;;;7.83;3.22;;;;;;;3.37;76.76;100592.31;1728779;83;21216;-69
2021/03/03 02:44:54;;;;;;;4.22;2.52;;;;;;;3.36;76.84;100592.80;1729683;83;21866;-70
2021/03/03 02:47:27;;;;;;;6.13;3.70;;;;;;;3.34;76.81;100595.89;1729777;82;21183;-70
2021/03/03 02:50:00;;;;;;;6.03;3.10;;;;;;;3.34;76.93;100601.07;1728357;83;21333;-69
2021/03/03 02:52:54;;;;;;;4.78;3.15;;;;;;;3.36;76.87;100604.44;1728865;83;21343;-69
2021/03/03 02:55:29;;;;;;;7.40;3.67;;;;;;;3.35;76.86;100607.09;1728763;82;21715;-69
2021/03/03 02:58:03;;;;;;;5.37;3.12;;;;;;;3.35;76.89;100606.63;1728645;82;21295;-69
2021/03/03 03:00:38;;;;;;;;;;;;;;;3.35;76.78;100613.55;1732107;83;21152;-69
2021/03/03 03:03:36;;;;;;;5.28;2.62;;;;;;;3.34;76.73;100614.01;1728476;83;20209;-69
2021/03/03 03:06:39;;;;;;;4.67;2.67;;;;;;;3.32;76.69;100617.59;1713633;83;21105;-69
2021/03/03 03:09:29;;;;;;;5.75;3.22;;;;;;;3.28;76.59;100616.94;1796779;80;21653;-68
2021/03/03 03:12:20;;;;;;;5.40;2.80;;;;;;;3.26;76.63;100616.19;1796363;80;21832;-68
2021/03/03 03:15:11;;;;;;;4.47;2.58;;;;;;;3.23;76.55;100622.81;1777730;80;21108;-69
2021/03/03 03:17:47;;;;;;;4.35;2.87;;;;;;;3.17;76.41;100621.85;1796119;80;21187;-69
2021/03/03 03:20:20;;;;;;;4.58;2.67;;;;;;;3.11;76.56;100626.48;1796419;80;21135;-69
2021/03/03 03:22:53;;;;;;;4.12;2.47;;;;;;;3.11;76.65;100638.97;1795960;80;21836;-68
2021/03/03 03:25:27;;;;;;;4.85;2.70;;;;;;;3.13;76.68;100643.60;1788044;80;21164;-69
2021/03/03 03:28:01;;;;;;;4.83;2.30;;;;;;;3.14;76.65;100644.45;1794755;80;21817;-68
2021/03/03 03:30:33;;;;;;;7.08;3.58;;;;;;;3.15;76.63;100650.82;1797227;80;21773;-69
2021/03/03 03:33:07;;;;;;;4.12;2.17;;;;;;;3.19;76.58;100656.69;1795974;80;21131;-69
2021/03/03 03:35:41;;;;;;;6.17;2.02;;;;;;;3.21;76.43;100655.69;1797206;80;21278;-69
2021/03/03 03:38:14;;;;;;;3.42;1.80;;;;;;;3.21;76.36;100660.87;1777376;79;21219;-69
2021/03/03 03:40:48;;;;;;;5.78;2.37;;;;;;;3.23;76.32;100661.63;1805071;79;21223;-70
2021/03/03 03:43:21;;;;;;;3.45;2.00;;;;;;;3.27;76.24;100670.08;1776225;79;21846;-69
2021/03/03 03:45:54;;;;;;;4.80;1.70;;;;;;;3.26;76.03;100667.09;1805107;79;21236;-69
2021/03/03 03:48:27;;;;;;;2.50;1.47;;;;;;;3.28;75.92;100663.96;1766033;80;21268;-69
2021/03/03 03:51:05;;;;;;;5.42;1.55;;;;;;;3.30;75.67;100675.06;1796748;80;21668;-69
2021/03/03 03:53:38;;;;;;;4.08;1.67;;;;;;;3.30;75.66;100672.02;1767818;81;21284;-69
2021/03/03 03:56:11;;;;;;;4.58;1.80;;;;;;;3.32;75.45;100677.11;1796908;80;21121;-69
2021/03/03 03:58:44;;;;;;;2.42;1.50;;;;;;;3.33;75.33;100674.91;1768274;81;21292;-70
2021/03/03 04:01:18;;;;;;;2.30;1.30;;;;;;;3.36;75.16;100686.41;1762160;80;21250;-69
2021/03/03 04:03:51;;;;;;;4.25;2.30;;;;;;;3.35;74.89;100687.31;1784217;80;21310;-69
2021/03/03 04:06:24;;;;;;;4.20;1.20;;;;;;;3.35;74.87;100689.90;1792026;80;21136;-70
2021/03/03 04:08:57;;;;;;;3.43;1.50;;;;;;;3.35;74.83;100697.66;1795708;79;21311;-70
2021/03/03 04:11:30;;;;;;;2.87;1.43;;;;;;;3.36;74.75;100700.64;1800044;79;21112;-70
2021/03/03 04:14:08;;;;;;;3.50;1.30;;;;;;;3.36;74.63;100700.19;1779391;79;21263;-70
2021/03/03 04:16:37;;;;;;;2.37;1.20;;;;;;;3.36;74.50;100703.23;1763658;81;21152;-70
2021/03/03 04:19:11;;;;;;;4.90;1.47;;;;;;;3.34;74.29;100712.34;1782329;79;21877;-69
2021/03/03 04:21:44;;;;;;;1.95;1.12;;;;;;;3.34;74.32;100712.34;1795871;80;21258;-70
2021/03/03 04:24:17;;;;;;;2.22;1.45;;;;;;;3.34;74.12;100712.34;1784363;80;21254;-69
2021/03/03 04:26:50;;;;;;;2.23;1.30;;;;;;;3.33;73.92;100713.28;1796036;80;21163;-70
2021/03/03 04:29:23;;;;;;;2.67;1.40;;;;;;;3.33;73.81;100722.34;1794943;79;21227;-70
2021/03/03 04:31:56;;;;;;;3.63;1.37;;;;;;;3.35;73.81;100724.38;1794248;80;22052;-69
2021/03/03 04:34:29;;;;;;;3.10;1.22;;;;;;;3.39;73.82;100734.12;1815915;77;21174;-69
2021/03/03 04:37:02;;;;;;;2.00;1.20;;;;;;;3.43;73.81;100745.98;1815965;79;21293;-69
2021/03/03 04:39:36;;;;;;;3.95;1.30;;;;;;;3.47;73.85;100741.47;1815695;79;21158;-71
2021/03/03 04:42:09;;;;;;;3.60;1.60;;;;;;;3.50;73.80;100747.34;1816084;79;21816;-68
2021/03/03 04:44:42;;;;;;;1.40;1.00;;;;;;;3.54;73.75;100757.06;1815299;79;21170;-70
2021/03/03 04:47:15;;;;;;;2.03;1.17;;;;;;;3.56;73.61;100757.36;1815788;79;21258;-70
2021/03/03 04:49:48;;;;;;;5.22;1.50;;;;;;;3.58;73.56;100767.21;1815135;77;21237;-70
2021/03/03 04:52:21;;;;;;;1.43;1.20;;;;;;;3.62;73.47;100761.39;1815244;79;21308;-70
2021/03/03 04:54:54;;;;;;;4.12;1.80;;;;;;;3.67;73.28;100755.53;1814510;77;21295;-71
2021/03/03 04:57:27;;;;;;;3.05;1.17;;;;;;;3.69;73.05;100761.45;1813720;79;21354;-71
2021/03/03 05:00:00;;;;;;;3.42;1.30;;;;;;;3.70;72.83;100767.02;1776789;79;21141;-70
2021/03/03 05:02:33;;;;;;;6.07;1.70;;;;;;;3.71;72.69;100773.41;1771837;81;21327;-68
2021/03/03 05:05:08;;;;;;;2.75;1.37;;;;;;;3.74;72.47;100779.73;1772358;79;21252;-69
2021/03/03 05:07:41;;;;;;;2.92;1.25;;;;;;;3.76;72.39;100781.77;1772298;81;21173;-70
2021/03/03 05:10:15;;;;;;;2.53;1.27;;;;;;;3.80;72.25;100785.87;1815485;77;21170;-70
2021/03/03 05:12:48;;;;;;;2.58;1.17;;;;;;;3.82;72.11;100788.39;1815808;79;21203;-71
2021/03/03 05:15:21;;;;;;;2.90;1.20;;;;;;;3.87;71.92;100796.28;1814684;79;21214;-70
2021/03/03 05:17:54;;;;;;;3.72;1.25;;;;;;;3.92;71.83;100797.33;1814130;77;21281;-70
2021/03/03 05:20:27;;;;;;;2.90;1.30;;;;;;;3.97;71.56;100805.25;1800577;79;21162;-69
2021/03/03 05:23:00;;;;;;;4.22;1.52;;;;;;;3.99;71.15;100816.36;1801548;79;21245;-70
2021/03/03 05:25:34;;;;;;;5.13;1.43;;;;;;;3.97;70.81;100810.88;1810317;79;21238;-70
2021/03/03 05:28:07;;;;;;;2.50;1.25;;;;;;;3.96;70.40;100818.30;1813602;77;21281;-70
2021/03/03 05:30:40;;;;;;;3.35;1.30;;;;;;;3.90;69.94;100819.89;1815618;79;21150;-70
2021/03/03 05:33:15;;;;;;;7.67;1.32;;;;;;;3.89;69.85;100828.59;1814938;77;21855;-70
2021/03/03 05:35:48;;;;;;;2.90;1.42;;;;;;;3.92;69.55;100834.89;1804612;78;21685;-70
2021/03/03 05:38:21;;;;;;;3.70;1.40;;;;;;;3.98;69.47;100832.00;1806959;79;21248;-70
2021/03/03 05:40:56;;;;;;;3.27;1.60;;;;;;;4.06;69.34;100841.48;1796754;79;21344;-70
2021/03/03 05:43:28;;;;;;;;;;;;;;;4.18;69.33;100847.31;1770447;79;21287;-69
2021/03/03 05:46:01;;;;;;;5.70;2.55;;;;;;;4.28;69.23;100844.61;1770117;79;20262;-66
2021/03/03 05:48:42;;;;;;;4.83;1.50;;;;;;;4.34;68.94;100843.01;1768372;79;21368;-64
2021/03/03 05:51:15;;;;;;;2.77;1.55;;;;;;;4.46;68.76;100844.09;1781181;78;21207;-65
2021/03/03 05:53:48;;;;;;;4.03;1.60;;;;;;;4.65;68.52;100848.20;1759323;80;21247;-67
2021/03/03 05:56:22;;;;;;;3.58;1.72;;;;;;;4.91;68.18;100853.23;1779676;79;21197;-67
2021/03/03 05:58:55;;;;;;;4.28;1.47;;;;;;;5.29;67.89;100845.87;1778762;78;21291;-67
2021/03/03 06:01:28;;;;;;;4.58;1.60;;;;;;;5.71;66.83;100851.14;1795310;77;21147;-67
2021/03/03 06:04:03;;;;;;;2.58;1.50;;;;;;;6.07;65.08;100854.63;1791197;77;21185;-60
2021/03/03 06:06:36;;;;;;;4.80;1.17;;;;;;;6.66;64.15;100858.77;1802904;77;21319;-65
2021/03/03 06:09:08;;;;;;;3.67;1.35;;;;;;;7.22;62.58;100856.41;1798114;78;21504;-65
2021/03/03 06:11:41;;;;;;;1.80;1.20;;;;;;;7.43;61.66;100864.11;1798675;77;21214;-66
2021/03/03 06:14:14;;;;;;;5.30;2.08;;;;;;;7.44;60.57;100865.80;1795198;78;21905;-69
2021/03/03 06:16:47;;;;;;;4.15;1.57;;;;;;;7.31;60.05;100861.86;1795322;77;21152;-63
2021/03/03 06:19:20;;;;;;;3.95;1.55;;;;;;;7.15;59.66;100864.26;1801168;78;21674;-69
2021/03/03 06:21:53;;;;;;;1.75;1.17;;;;;;;7.03;59.76;100870.25;1796136;77;21333;-66
2021/03/03 06:24:35;;;;;;;3.73;1.60;;;;;;;7.11;59.59;100866.23;1797711;77;21300;-61
2021/03/03 06:27:08;;;;;;;3.62;1.40;;;;;;;7.13;59.04;100870.87;1793377;77;21288;-65
2021/03/03 06:29:41;;;;;;;3.05;1.42;;;;;;;7.17;58.83;100868.44;1799144;77;21306;-70
2021/03/03 06:32:14;;;;;;;4.22;1.50;;;;;;;7.22;58.53;100866.37;1797216;77;21287;-69
2021/03/03 06:34:52;;;;;;;4.67;2.08;;;;;;;7.57;58.07;100869.73;1799290;77;21287;-68
2021/03/03 06:37:25;;;;;;;2.58;1.00;;;;;;;8.33;57.21;100869.30;1790427;77;21919;-68
2021/03/03 06:40:41;;;;;;;2.08;1.20;;;;;;;8.84;55.34;100876.03;1792741;78;21248;-69
2021/03/03 06:43:30;;;;;;;3.52;1.15;;;;;;;9.35;53.64;100868.81;1769775;78;21206;-68
2021/03/03 06:46:18;;;;;;;2.90;1.30;;;;;;;10.68;51.19;100877.66;1797670;78;21268;-68
2021/03/03 06:48:51;;;;;;;3.15;1.20;;;;;;;11.69;49.56;100889.48;1796703;77;21282;-69
2021/03/03 06:51:36;;;;;;;2.22;1.42;;;;;;;12.94;46.50;100873.78;1805051;77;21342;-68
2021/03/03 06:54:12;;;;;;;6.47;2.42;;;;;;;13.94;43.52;100878.61;1773114;78;21895;-69
2021/03/03 06:56:46;;;;;;;2.67;1.20;;;;;;;14.87;41.89;100878.98;1760692;79;21937;-67
2021/03/03 06:59:33;;;;;;;3.08;1.20;;;;;;;15.68;39.60;100879.27;1775393;78;21163;-72
2021/03/03 07:02:11;;;;;;;2.15;1.00;;;;;;;16.37;37.81;100893.73;1730176;80;21355;-67
2021/03/03 07:04:45;;;;;;;8.48;1.60;;;;;;;16.89;37.23;100902.39;1789466;78;21258;-69
2021/03/03 07:07:20;;;;;;;4.75;1.57;;;;;;;16.58;36.50;100909.56;1785450;78;21188;-69
2021/03/03 07:10:03;;;;;;;3.05;1.27;;;;;;;15.89;36.52;100910.95;1789286;79;21288;-70
2021/03/03 07:12:34;;;;;;;3.25;1.35;;;;;;;14.96;37.51;100917.63;1784977;78;21759;-63
2021/03/03 07:15:10;;;;;;;;;;;;;;;14.01;38.65;100917.87;1791884;78;21350;-65
2021/03/03 07:17:46;;;;;;;4.40;1.20;;;;;;;12.97;39.29;100915.54;1784427;78;20320;-67
2021/03/03 07:20:19;;;;;;;2.15;0.70;;;;;;;11.88;40.87;100926.34;1784083;79;21197;-66
2021/03/03 07:22:56;;;;;;;3.83;1.17;;;;;;;11.19;42.68;100930.30;1781860;78;21196;-66
2021/03/03 07:25:28;;;;;;;2.85;1.07;;;;;;;10.79;44.34;100935.74;1791404;78;21301;-62
2021/03/03 07:28:02;;;;;;;12.75;7.47;;;;;;;10.33;45.12;100937.64;1788702;79;21743;-66
2021/03/03 07:30:36;;;;;;;4.40;1.85;;;;;;;9.83;45.85;100941.45;1789372;78;21126;-66
2021/03/03 07:33:09;;;;;;;3.52;1.20;;;;;;;9.30;46.92;100940.16;1790415;78;21288;-68
2021/03/03 07:35:42;;;;;;;3.30;1.35;;;;;;;8.89;47.99;100942.28;1754446;78;21320;-66
2021/03/03 07:38:16;;;;;;;1.87;0.98;;;;;;;8.51;49.12;100947.58;1793302;78;21134;-63
2021/03/03 07:40:49;;;;;;;2.60;1.32;;;;;;;8.22;49.84;100944.33;1798566;78;21283;-67
2021/03/03 07:43:23;;;;;;;2.30;1.55;;;;;;;7.97;50.79;100952.16;1747857;80;21379;-61
2021/03/03 07:45:56;;;;;;;3.00;1.20;;;;;;;7.73;51.47;100943.34;1795874;78;21304;-68
2021/03/03 07:48:30;;;;;;;2.70;1.00;;;;;;;7.56;52.13;100957.95;1789890;78;21345;-69
2021/03/03 07:51:06;;;;;;;;;;;;;;;7.42;52.83;100958.39;1792607;78;21731;-67
2021/03/03 07:53:42;;;;;;;2.87;1.10;;;;;;;7.30;53.22;100956.57;1802072;77;20287;-70
2021/03/03 07:56:17;;;;;;;2.67;1.00;;;;;;;7.06;53.39;100957.28;1797036;77;21290;-71
2021/03/03 07:58:51;;;;;;;1.37;0.95;;;;;;;6.85;53.51;100963.83;1753891;79;21285;-69
2021/03/03 08:01:28;;;;;;;3.50;1.27;;;;;;;6.64;53.79;100957.70;1749050;80;21439;-66
2021/03/03 08:04:02;;;;;;;3.60;1.15;;;;;;;6.49;54.46;100958.66;1764706;79;21300;-69
2021/03/03 08:06:39;;;;;;;3.37;1.30;;;;;;;6.40;54.87;100963.09;1785211;77;21328;-69
2021/03/03 08:09:13;;;;;;;3.22;1.10;;;;;;;6.33;55.42;100963.09;1809061;77;22284;-70
2021/03/03 08:11:48;;;;;;;4.40;1.80;;;;;;;6.24;55.84;100968.85;1787469;77;21190;-68
2021/03/03 08:14:38;;;;;;;5.62;3.20;;;;;;;6.12;55.91;100963.08;1736590;80;22035;-70
2021/03/03 08:17:13;;;;;;;4.67;2.15;;;;;;;6.05;56.21;100974.30;1731929;80;21307;-69
2021/03/03 08:19:59;;;;;;;12.40;6.60;;;;;;;6.11;56.36;100971.33;1756673;78;21295;-66
2021/03/03 08:22:55;;;;;;;4.75;2.60;;;;;;;6.20;56.10;100975.63;1793432;77;21190;-66
2021/03/03 08:25:49;;;;;;;3.30;1.45;;;;;;;6.23;56.07;100975.45;1806361;77;21289;-66
2021/03/03 08:28:40;;;;;;;3.77;2.10;;;;;;;6.24;56.28;100982.30;1797648;77;21348;-66
2021/03/03 08:31:25;;;;;;;5.20;1.92;;;;;;;6.28;56.65;100977.31;1741009;80;21261;-63
2021/03/03 08:33:59;;;;;;;4.78;1.87;;;;;;;6.29;56.71;100972.47;1738306;80;21338;-66
2021/03/03 08:36:36;;;;;;;;;;;;;;;6.33;56.19;100980.00;1801651;78;21281;-65
2021/03/03 08:39:13;;;;;;;3.08;1.62;;;;;;;6.41;55.87;100982.98;1794342;77;20306;-67
2021/03/03 08:41:46;;;;;;;5.80;2.00;;;;;;;6.44;55.73;100983.27;1793703;77;21233;-66
2021/03/03 08:44:19;;;;;;;5.70;2.60;;;;;;;6.48;55.52;100990.79;1768669;78;21289;-60
2021/03/03 08:46:54;;;;;;;3.98;1.10;;;;;;;6.39;55.65;101000.91;1768588;79;21270;-65
2021/03/03 08:49:29;;;;;;;4.35;1.07;;;;;;;6.28;55.71;100997.63;1767688;79;21355;-68
2021/03/03 08:52:11;;;;;;;2.33;0.98;;;;;;;6.23;56.11;100994.50;1790472;78;21198;-72
2021/03/03 08:54:46;;;;;;;4.05;0.93;;;;;;;6.26;55.99;100998.68;1783992;78;21353;-68
2021/03/03 08:57:37;;;;;;;2.70;1.10;;;;;;;6.25;55.95;101007.39;1794455;77;21303;-75
2021/03/03 09:00:09;;;;;;;2.80;1.20;;;;;;;6.22;55.98;101008.86;1805479;77;21297;-67
2021/03/03 09:02:42;;;;;;;2.25;1.12;;;;;;;6.16;56.16;101015.73;1804829;77;21755;-67
2021/03/03 09:05:15;;;;;;;1.35;0.90;;;;;;;6.10;56.28;101019.52;1799042;77;21315;-71
2021/03/03 09:07:50;;;;;;;6.55;2.65;;;;;;;6.04;56.21;101026.39;1762722;79;21306;-65
2021/03/03 09:10:24;;;;;;;2.33;0.98;;;;;;;5.96;56.72;101037.67;1726805;81;21291;-65
2021/03/03 09:12:56;;;;;;;3.25;0.90;;;;;;;5.91;57.04;101035.80;1789049;77;21261;-69
2021/03/03 09:15:30;;;;;;;3.27;1.23;;;;;;;5.88;57.02;101037.27;1795764;77;21270;-65
2021/03/03 09:18:02;;;;;;;2.55;1.12;;;;;;;5.83;57.01;101047.05;1796331;77;21324;-68
2021/03/03 09:20:36;;;;;;;3.43;1.30;;;;;;;5.79;57.24;101040.36;1743124;77;21224;-63
2021/03/03 09:23:09;;;;;;;1.92;1.25;;;;;;;5.80;57.41;101044.19;1798068;77;21334;-63
2021/03/03 09:25:42;;;;;;;2.27;0.90;;;;;;;5.90;57.58;101047.95;1800321;77;21305;-65
2021/03/03 09:28:15;;;;;;;2.52;1.15;;;;;;;6.09;57.47;101034.27;1793264;77;21859;-72
2021/03/03 09:30:48;;;;;;;3.65;1.12;;;;;;;6.31;57.29;101045.56;1795499;77;21840;-69
2021/03/03 09:33:21;;;;;;;1.35;0.70;;;;;;;6.46;56.34;101042.53;1793754;77;21285;-70
2021/03/03 09:35:55;;;;;;;2.52;0.82;;;;;;;6.51;55.78;101052.20;1707801;81;21315;-67
2021/03/03 09:38:31;;;;;;;1.97;0.80;;;;;;;6.51;55.68;101045.70;1767805;79;21856;-71
2021/03/03 09:41:11;;;;;;;5.28;2.00;;;;;;;6.49;55.97;101059.27;1767267;79;21306;-71
2021/03/03 09:43:59;;;;;;;6.42;1.45;;;;;;;6.46;55.73;101058.14;1726979;81;21317;-67
2021/03/03 09:47:03;;;;;;;2.47;1.30;;;;;;;6.41;56.06;101066.67;1687642;81;21280;-67
2021/03/03 09:49:37;;;;;;;3.72;1.10;;;;;;;6.44;56.29;101063.90;1717003;81;21868;-68
2021/03/03 09:52:11;;;;;;;4.05;1.07;;;;;;;6.60;56.15;101063.36;1729530;80;21360;-70
2021/03/03 09:54:44;;;;;;;4.70;1.20;;;;;;;7.08;54.56;101066.06;1777206;79;21213;-69
2021/03/03 09:57:22;;;;;;;4.20;1.27;;;;;;;7.08;54.56;101066.06;1798722;77;21664;-67
2021/03/03 09:59:57;;;;;;;5.95;1.30;;;;;;;7.26;54.56;101060.55;1799640;77;21303;-70
2021/03/03 10:02:30;;;;;;;2.55;1.02;;;;;;;7.31;53.94;101064.17;1730257;81;21283;-70
2021/03/03 10:05:03;;;;;;;1.98;0.90;;;;;;;7.28;53.10;101071.70;1802619;77;21300;-70
2021/03/03 10:07:36;;;;;;;17.50;9.10;;;;;;;7.15;52.72;101072.56;1794219;77;21322;-70
2021/03/03 10:10:10;;;;;;;5.65;2.70;;;;;;;6.99;52.76;101077.89;1794856;78;21330;-70
2021/03/03 10:12:44;;;;;;;3.40;1.30;;;;;;;6.91;52.93;101079.27;1764875;79;21721;-74
2021/03/03 10:15:19;;;;;;;;;;;;;;;6.99;52.90;101070.54;1770406;79;21969;-70
2021/03/03 10:17:56;;;;;;;2.20;1.02;;;;;;;7.24;52.92;101075.44;1766208;79;20216;-72
2021/03/03 10:20:45;;;;;;;2.85;0.95;;;;;;;7.44;52.47;101078.11;1757815;79;21233;-73
2021/03/03 10:23:22;;;;;;;4.45;1.85;;;;;;;7.47;51.94;101076.63;1783801;78;22169;-71
2021/03/03 10:26:05;;;;;;;2.02;1.00;;;;;;;7.32;52.17;101086.69;1769807;79;21289;-73
2021/03/03 10:28:39;;;;;;;2.17;1.00;;;;;;;7.03;51.83;101088.48;1725862;82;21161;-74
2021/03/03 10:31:24;;;;;;;2.12;0.90;;;;;;;6.58;53.33;101091.23;1770812;79;21933;-70
2021/03/03 10:33:52;;;;;;;3.92;1.57;;;;;;;6.23;54.56;101088.09;1780293;79;21697;-69
2021/03/03 10:36:25;;;;;;;5.67;2.65;;;;;;;6.07;55.42;101084.67;1768491;79;21315;-70
2021/03/03 10:38:58;;;;;;;3.15;1.55;;;;;;;6.06;56.35;101092.12;1770084;79;21300;-66
2021/03/03 10:41:33;;;;;;;2.25;1.10;;;;;;;6.15;55.90;101089.45;1737983;80;21282;-64
2021/03/03 10:44:09;;;;;;;1.90;0.70;;;;;;;6.24;55.17;101090.21;1795709;78;21180;-62
2021/03/03 10:46:47;;;;;;;;;;;;;;;6.29;54.44;101094.69;1795933;77;21282;-64
2021/03/03 10:49:21;;;;;;;1.80;0.75;;;;;;;6.44;54.29;101092.05;1800776;77;20225;-68
2021/03/03 10:51:55;;;;;;;2.92;0.90;;;;;;;6.65;53.94;101088.19;1781063;78;21878;-63
2021/03/03 10:54:34;;;;;;;3.40;0.90;;;;;;;6.85;53.50;101095.27;1809146;78;21276;-67
2021/03/03 10:57:11;;;;;;;1.65;0.80;;;;;;;6.90;51.96;101095.83;1801155;77;21749;-67
2021/03/03 10:59:44;;;;;;;6.78;1.70;;;;;;;6.76;50.57;101112.25;1796448;78;21249;-68
2021/03/03 11:02:24;;;;;;;5.28;2.75;;;;;;;6.28;51.44;101130.25;1798084;77;22860;-70
2021/03/03 11:04:58;;;;;;;5.28;1.92;;;;;;;5.76;52.76;101146.59;1796407;77;21304;-69
2021/03/03 11:07:34;;;;;;;6.58;2.77;;;;;;;5.36;53.83;101136.23;1790997;77;21282;-68
2021/03/03 11:10:08;;;;;;;4.25;1.10;;;;;;;5.27;53.54;101141.07;1797552;77;21615;-68
2021/03/03 11:12:42;;;;;;;2.37;0.40;;;;;;;5.31;53.29;101125.25;1799151;78;21289;-68
2021/03/03 11:15:17;;;;;;;1.27;0.70;;;;;;;5.45;52.63;101131.84;1801584;77;21277;-70
2021/03/03 11:17:50;;;;;;;2.70;1.02;;;;;;;5.66;52.25;101132.91;1803209;77;21204;-70
2021/03/03 11:20:23;;;;;;;1.55;0.60;;;;;;;5.83;51.36;101137.53;1794842;77;21189;-71
2021/03/03 11:22:56;;;;;;;2.30;0.90;;;;;;;5.90;51.52;101133.70;1797949;78;21206;-69
2021/03/03 11:25:29;;;;;;;0.95;0.47;;;;;;;5.94;51.36;101137.84;1797360;77;21350;-69
2021/03/03 11:28:03;;;;;;;2.43;0.70;;;;;;;5.93;51.28;101136.60;1799386;77;21300;-70
2021/03/03 11:30:36;;;;;;;7.53;3.08;;;;;;;5.87;51.82;101140.40;1789070;77;21930;-68
2021/03/03 11:33:10;;;;;;;2.10;1.15;;;;;;;5.86;52.14;101146.50;1746626;80;21846;-63
2021/03/03 11:35:44;;;;;;;1.05;0.57;;;;;;;5.92;52.44;101151.34;1783859;79;21246;-66
2021/03/03 11:38:19;;;;;;;2.25;0.65;;;;;;;5.94;52.29;101154.73;1798479;78;21183;-71
2021/03/03 11:40:53;;;;;;;4.20;0.68;;;;;;;5.92;51.81;101156.55;1788000;78;21843;-64
2021/03/03 11:43:26;;;;;;;1.82;0.68;;;;;;;5.81;51.65;101151.08;1799866;77;21775;-68
2021/03/03 11:46:00;;;;;;;2.10;0.65;;;;;;;5.74;52.19;101159.28;1729080;81;21287;-65
2021/03/03 11:48:36;;;;;;;1.82;0.80;;;;;;;5.72;52.94;101152.89;1775774;78;21553;-62
2021/03/03 11:51:09;;;;;;;3.92;1.55;;;;;;;5.76;53.12;101149.64;1776876;79;21327;-64
2021/03/03 11:53:42;;;;;;;2.25;1.10;;;;;;;5.80;53.18;101155.08;1780287;78;21259;-66
2021/03/03 11:56:15;;;;;;;3.33;1.42;;;;;;;5.86;54.03;101149.56;1781795;79;21405;-61
2021/03/03 11:58:48;;;;;;;4.25;1.00;;;;;;;6.01;54.06;101163.02;1776530;79;21336;-62
2021/03/03 12:01:22;;;;;;;1.07;0.70;;;;;;;6.16;53.68;101158.27;1787055;78;21275;-63
2021/03/03 12:03:56;;;;;;;1.95;0.78;;;;;;;6.30;53.77;101151.83;1739739;80;21427;-66
2021/03/03 12:06:29;;;;;;;2.40;1.00;;;;;;;6.36;50.85;101162.33;1798622;78;21320;-64
2021/03/03 12:09:07;;;;;;;;;;;;;;;6.36;50.85;101162.33;1796259;78;21826;-65
2021/03/03 12:11:42;;;;;;;5.00;1.42;;;;;;;6.17;48.37;101177.28;1788150;77;20274;-66